createdAt,value
2022-10-17T00:00:09.423Z,13.70
2022-10-17T00:02:56.520Z,13.60
2022-10-17T00:05:45.761Z,13.70
2022-10-17T00:08:34.394Z,13.60
2022-10-17T00:11:23.663Z,13.60
2022-10-17T00:14:10.745Z,13.60
2022-10-17T00:16:59.149Z,13.60
2022-10-17T00:19:46.100Z,13.70
2022-10-17T00:22:33.076Z,13.70
2022-10-17T00:25:20.401Z,13.60
2022-10-17T00:28:10.004Z,13.70
2022-10-17T00:31:02.440Z,13.60
2022-10-17T00:33:49.607Z,13.60
2022-10-17T00:36:36.820Z,13.50
2022-10-17T00:39:26.348Z,13.50
2022-10-17T00:42:13.413Z,13.40
2022-10-17T00:45:06.709Z,13.40
2022-10-17T00:48:01.221Z,13.50
2022-10-17T00:50:50.865Z,13.60
2022-10-17T00:53:38.991Z,13.50
2022-10-17T00:56:26.719Z,13.50
2022-10-17T00:59:14.661Z,13.60
2022-10-17T01:02:04.882Z,13.50
2022-10-17T01:04:55.530Z,13.40
2022-10-17T01:07:44.511Z,13.40
2022-10-17T01:10:42.693Z,13.30
2022-10-17T01:13:48.997Z,13.40
2022-10-17T01:16:43.845Z,13.30
2022-10-17T01:19:51.841Z,13.30
2022-10-17T01:23:06.489Z,13.20
2022-10-17T01:26:18.841Z,13.20
2022-10-17T01:29:55.192Z,13.10
2022-10-17T01:32:57.797Z,13.20
2022-10-17T01:35:56.488Z,13.10
2022-10-17T01:38:57.280Z,13.00
2022-10-17T01:42:03.964Z,13.10
2022-10-17T01:45:03.311Z,13.10
2022-10-17T01:47:52.243Z,13.20
2022-10-17T01:50:44.478Z,13.10
2022-10-17T01:53:42.744Z,13.10
2022-10-17T01:56:32.970Z,13.10
2022-10-17T01:59:23.787Z,13.00
2022-10-17T02:02:14.173Z,13.00
2022-10-17T02:05:04.004Z,13.00
2022-10-17T02:07:50.914Z,12.90
2022-10-17T02:11:00.855Z,12.90
2022-10-17T02:14:06.656Z,12.80
2022-10-17T02:16:53.590Z,12.80
2022-10-17T02:20:09.390Z,12.80
2022-10-17T02:23:05.618Z,12.80
2022-10-17T02:26:35.273Z,12.80
2022-10-17T02:29:28.467Z,12.80
2022-10-17T02:32:26.187Z,12.80
2022-10-17T02:35:15.522Z,12.80
2022-10-17T02:38:05.057Z,12.90
2022-10-17T02:40:53.918Z,12.80
2022-10-17T02:43:45.105Z,12.80
2022-10-17T02:46:34.267Z,12.80
2022-10-17T02:49:25.795Z,12.70
2022-10-17T02:52:31.855Z,12.80
2022-10-17T02:55:32.412Z,12.70
2022-10-17T02:58:23.784Z,12.70
2022-10-17T03:01:11.002Z,12.70
2022-10-17T03:04:14.993Z,12.60
2022-10-17T03:07:01.977Z,12.60
2022-10-17T03:09:48.924Z,12.60
2022-10-17T03:12:35.920Z,12.50
2022-10-17T03:15:22.832Z,12.40
2022-10-17T03:18:09.923Z,12.40
2022-10-17T03:20:56.932Z,12.40
2022-10-17T03:23:43.865Z,12.40
2022-10-17T03:26:31.098Z,12.40
2022-10-17T03:29:18.021Z,12.40
2022-10-17T03:32:05.206Z,12.40
2022-10-17T03:34:54.251Z,12.40
2022-10-17T03:37:41.210Z,12.50
2022-10-17T03:40:28.121Z,12.40
2022-10-17T03:43:15.159Z,12.40
2022-10-17T03:46:02.464Z,12.30
2022-10-17T03:48:49.469Z,12.30
2022-10-17T03:51:39.178Z,12.30
2022-10-17T03:54:26.214Z,12.30
2022-10-17T03:57:13.176Z,12.30
2022-10-17T04:00:00.108Z,12.20
2022-10-17T04:02:47.065Z,12.20
2022-10-17T04:05:34.048Z,12.20
2022-10-17T04:08:20.970Z,12.20
2022-10-17T04:11:09.111Z,12.20
2022-10-17T04:13:57.521Z,12.20
2022-10-17T04:16:44.952Z,12.20
2022-10-17T04:20:10.235Z,12.10
2022-10-17T04:23:01.314Z,12.20
2022-10-17T04:25:59.990Z,12.10
2022-10-17T04:28:52.648Z,12.20
2022-10-17T04:31:42.174Z,12.10
2022-10-17T04:34:33.360Z,12.00
2022-10-17T04:37:20.326Z,12.10
2022-10-17T04:40:14.667Z,12.00
2022-10-17T04:43:03.740Z,12.00
2022-10-17T04:45:53.070Z,12.00
2022-10-17T04:48:42.974Z,12.00
2022-10-17T04:51:34.047Z,12.00
2022-10-17T04:54:21.105Z,12.10
2022-10-17T04:57:08.152Z,12.00
2022-10-17T04:59:57.907Z,12.00
2022-10-17T05:02:49.716Z,12.00
2022-10-17T05:05:45.765Z,11.90
2022-10-17T05:08:36.908Z,11.90
2022-10-17T05:11:33.759Z,11.90
2022-10-17T05:14:50.302Z,12.00
2022-10-17T05:17:58.589Z,11.90
2022-10-17T05:21:05.310Z,11.90
2022-10-17T05:23:55.572Z,11.70
2022-10-17T05:26:48.235Z,11.70
2022-10-17T05:29:40.991Z,11.80
2022-10-17T05:35:51.889Z,11.80
2022-10-17T05:38:59.056Z,11.80
2022-10-17T05:41:54.450Z,11.80
2022-10-17T05:45:01.637Z,11.80
2022-10-17T05:48:11.160Z,11.80
2022-10-17T05:54:10.248Z,11.80
2022-10-17T05:56:57.423Z,11.80
2022-10-17T05:59:44.321Z,11.70
2022-10-17T06:02:31.797Z,11.70
2022-10-17T06:05:19.647Z,11.70
2022-10-17T06:08:06.691Z,11.70
2022-10-17T06:10:53.677Z,11.80
2022-10-17T06:13:40.782Z,11.80
2022-10-17T06:16:27.746Z,11.70
2022-10-17T06:19:14.655Z,11.70
2022-10-17T06:22:01.633Z,11.70
2022-10-17T06:24:51.266Z,11.70
2022-10-17T06:27:38.183Z,11.80
2022-10-17T06:30:25.476Z,11.80
2022-10-17T06:33:12.582Z,11.90
2022-10-17T06:36:00.359Z,11.90
2022-10-17T06:38:47.996Z,11.90
2022-10-17T06:41:35.007Z,12.00
2022-10-17T06:44:22.613Z,12.00
2022-10-17T06:47:09.862Z,12.00
2022-10-17T06:49:57.169Z,12.10
2022-10-17T06:52:44.576Z,12.10
2022-10-17T06:55:32.470Z,12.10
2022-10-17T06:58:22.705Z,12.20
2022-10-17T07:01:12.345Z,12.30
2022-10-17T07:03:59.259Z,12.30
2022-10-17T07:06:46.712Z,12.30
2022-10-17T07:09:33.661Z,12.40
2022-10-17T07:12:21.439Z,12.40
2022-10-17T07:15:08.947Z,12.50
2022-10-17T07:17:57.670Z,12.50
2022-10-17T07:20:52.120Z,12.50
2022-10-17T07:23:39.802Z,12.50
2022-10-17T07:26:26.714Z,12.60
2022-10-17T07:29:13.637Z,12.60
2022-10-17T07:32:00.634Z,12.70
2022-10-17T07:34:47.710Z,12.70
2022-10-17T07:37:35.272Z,12.80
2022-10-17T07:40:23.105Z,12.80
2022-10-17T07:43:10.019Z,12.90
2022-10-17T07:45:56.986Z,12.90
2022-10-17T07:48:44.113Z,12.90
2022-10-17T07:51:31.010Z,13.00
2022-10-17T07:54:18.005Z,13.30
2022-10-17T07:59:26.545Z,13.30
2022-10-17T08:01:56.178Z,13.40
2022-10-17T08:04:23.610Z,13.40
2022-10-17T08:06:53.428Z,13.50
2022-10-17T08:09:23.071Z,13.60
2022-10-17T08:11:49.647Z,13.60
2022-10-17T08:14:17.084Z,13.60
2022-10-17T08:16:44.035Z,13.70
2022-10-17T08:19:11.413Z,13.70
2022-10-17T08:21:38.677Z,13.80
2022-10-17T08:24:05.482Z,13.80
2022-10-17T08:26:32.087Z,13.90
2022-10-17T08:28:58.759Z,13.90
2022-10-17T08:31:25.372Z,14.00
2022-10-17T08:33:51.930Z,14.00
2022-10-17T08:36:20.106Z,14.10
2022-10-17T08:38:50.335Z,14.10
2022-10-17T08:41:52.787Z,14.10
2022-10-17T08:44:33.622Z,14.20
2022-10-17T08:47:03.918Z,14.20
2022-10-17T08:49:46.795Z,14.30
2022-10-17T08:52:35.542Z,14.30
2022-10-17T08:55:02.374Z,14.40
2022-10-17T08:57:31.953Z,14.40
2022-10-17T08:59:58.994Z,14.50
2022-10-17T09:02:47.320Z,14.50
2022-10-17T09:05:50.432Z,14.60
2022-10-17T09:08:29.460Z,14.60
2022-10-17T09:11:00.293Z,14.60
2022-10-17T09:13:54.795Z,14.70
2022-10-17T09:16:37.223Z,14.80
2022-10-17T09:19:28.407Z,14.80
2022-10-17T09:22:01.657Z,14.90
2022-10-17T09:24:54.672Z,14.90
2022-10-17T09:27:44.707Z,15.00
2022-10-17T09:30:44.730Z,15.10
2022-10-17T09:33:34.290Z,15.20
2022-10-17T09:36:09.490Z,15.20
2022-10-17T09:38:45.416Z,15.40
2022-10-17T09:44:21.578Z,15.50
2022-10-17T09:47:19.502Z,15.60
2022-10-17T09:49:48.855Z,15.70
2022-10-17T09:52:24.651Z,15.70
2022-10-17T09:55:06.236Z,15.80
2022-10-17T09:57:55.989Z,15.80
2022-10-17T10:00:41.248Z,15.90
2022-10-17T10:03:10.720Z,16.00
2022-10-17T10:05:37.426Z,16.00
2022-10-17T10:08:17.415Z,16.10
2022-10-17T10:10:45.044Z,16.20
2022-10-17T10:13:14.699Z,16.30
2022-10-17T10:15:45.752Z,16.30
2022-10-17T10:18:35.340Z,16.40
2022-10-17T10:21:15.653Z,16.50
2022-10-17T10:23:44.748Z,16.50
2022-10-17T10:26:47.471Z,16.60
2022-10-17T10:29:36.505Z,16.70
2022-10-17T10:32:35.732Z,16.80
2022-10-17T10:35:06.097Z,16.90
2022-10-17T10:37:44.294Z,17.00
2022-10-17T10:40:22.760Z,17.10
2022-10-17T10:42:51.723Z,17.10
2022-10-17T10:45:46.457Z,17.20
2022-10-17T10:48:18.895Z,17.20
2022-10-17T10:50:46.553Z,17.30
2022-10-17T10:53:40.077Z,17.50
2022-10-17T10:56:30.934Z,17.50
2022-10-17T10:59:12.948Z,17.50
2022-10-17T11:01:48.941Z,17.60
2022-10-17T11:04:33.409Z,17.70
2022-10-17T11:07:24.627Z,17.80
2022-10-17T11:09:55.129Z,17.80
2022-10-17T11:12:30.656Z,17.90
2022-10-17T11:15:22.170Z,18.00
2022-10-17T11:17:56.853Z,18.00
2022-10-17T11:20:44.772Z,18.00
2022-10-17T11:23:21.562Z,18.10
2022-10-17T11:25:52.869Z,18.10
2022-10-17T11:28:22.193Z,18.20
2022-10-17T11:30:48.793Z,18.20
2022-10-17T11:33:22.059Z,18.30
2022-10-17T11:35:51.745Z,18.30
2022-10-17T11:38:44.806Z,18.40
2022-10-17T11:41:34.104Z,18.50
2022-10-17T11:44:38.215Z,18.50
2022-10-17T11:47:43.211Z,18.50
2022-10-17T11:53:14.394Z,18.60
2022-10-17T11:55:42.572Z,18.70
2022-10-17T11:58:33.003Z,18.70
2022-10-17T12:01:23.964Z,18.70
2022-10-17T12:04:13.198Z,18.80
2022-10-17T12:06:45.769Z,18.80
2022-10-17T12:09:21.106Z,18.80
2022-10-17T12:11:58.283Z,18.90
2022-10-17T12:14:33.726Z,18.90
2022-10-17T12:17:02.187Z,18.90
2022-10-17T12:19:34.255Z,19.00
2022-10-17T12:22:22.752Z,19.00
2022-10-17T12:25:03.797Z,19.10
2022-10-17T12:27:45.888Z,19.10
2022-10-17T12:30:12.640Z,19.10
2022-10-17T12:33:07.125Z,19.20
2022-10-17T12:35:36.288Z,19.20
2022-10-17T12:38:18.010Z,19.30
2022-10-17T12:40:49.014Z,19.40
2022-10-17T12:43:15.773Z,19.40
2022-10-17T12:45:54.239Z,19.40
2022-10-17T12:48:41.684Z,19.40
2022-10-17T12:51:36.520Z,19.50
2022-10-17T12:54:12.501Z,19.50
2022-10-17T12:56:45.282Z,19.50
2022-10-17T12:59:20.753Z,19.60
2022-10-17T13:01:51.312Z,19.60
2022-10-17T13:04:19.168Z,19.60
2022-10-17T13:06:54.063Z,19.70
2022-10-17T13:09:32.734Z,19.70
2022-10-17T13:12:04.248Z,19.70
2022-10-17T13:14:33.105Z,19.70
2022-10-17T13:17:02.144Z,19.70
2022-10-17T13:19:41.078Z,19.80
2022-10-17T13:22:22.998Z,19.80
2022-10-17T13:24:51.524Z,19.80
2022-10-17T13:27:31.122Z,19.90
2022-10-17T13:30:00.517Z,19.90
2022-10-17T13:32:36.394Z,19.90
2022-10-17T13:35:12.704Z,19.90
2022-10-17T13:37:46.711Z,19.90
2022-10-17T13:40:40.924Z,20.00
2022-10-17T13:43:24.091Z,20.00
2022-10-17T13:46:02.261Z,20.00
2022-10-17T13:48:37.931Z,20.10
2022-10-17T13:51:07.850Z,20.00
2022-10-17T13:53:42.404Z,20.10
2022-10-17T13:56:30.369Z,20.10
2022-10-17T13:59:04.896Z,20.10
2022-10-17T14:01:31.761Z,20.10
2022-10-17T14:04:20.193Z,20.10
2022-10-17T14:06:49.645Z,20.10
2022-10-17T14:09:26.678Z,20.10
2022-10-17T14:12:02.458Z,20.10
2022-10-17T14:14:30.410Z,20.20
2022-10-17T14:17:21.811Z,20.20
2022-10-17T14:20:05.854Z,20.30
2022-10-17T14:22:40.449Z,20.30
2022-10-17T14:25:31.165Z,20.30
2022-10-17T14:28:14.794Z,20.30
2022-10-17T14:30:56.791Z,20.20
2022-10-17T14:33:30.100Z,20.30
2022-10-17T14:35:59.996Z,20.30
2022-10-17T14:38:28.584Z,20.30
2022-10-17T14:44:15.654Z,20.40
2022-10-17T14:46:49.737Z,20.30
2022-10-17T14:49:25.208Z,20.30
2022-10-17T14:52:28.839Z,20.30
2022-10-17T14:54:56.515Z,20.30
2022-10-17T14:57:40.679Z,20.30
2022-10-17T15:00:07.817Z,20.30
2022-10-17T15:02:34.862Z,20.30
2022-10-17T15:05:01.455Z,20.30
2022-10-17T15:07:29.337Z,20.30
2022-10-17T15:09:56.271Z,20.20
2022-10-17T15:12:25.287Z,20.30
2022-10-17T15:14:52.970Z,20.20
2022-10-17T15:17:30.773Z,20.20
2022-10-17T15:19:59.525Z,20.20
2022-10-17T15:22:26.638Z,20.20
2022-10-17T15:24:53.404Z,20.10
2022-10-17T15:27:22.552Z,20.00
2022-10-17T15:29:50.055Z,20.00
2022-10-17T15:32:16.929Z,20.00
2022-10-17T15:34:43.912Z,19.80
2022-10-17T15:37:22.442Z,19.80
2022-10-17T15:39:55.285Z,19.80
2022-10-17T15:42:26.760Z,19.70
2022-10-17T15:44:53.990Z,19.70
2022-10-17T15:47:34.835Z,19.60
2022-10-17T15:50:02.200Z,19.60
2022-10-17T15:52:28.762Z,19.60
2022-10-17T15:54:57.339Z,19.60
2022-10-17T15:57:29.510Z,19.40
2022-10-17T15:59:59.026Z,19.30
2022-10-17T16:02:26.093Z,19.30
2022-10-17T16:04:53.083Z,19.20
2022-10-17T16:07:20.801Z,19.20
2022-10-17T16:09:47.869Z,19.20
2022-10-17T16:12:27.543Z,19.20
2022-10-17T16:14:54.298Z,19.20
2022-10-17T16:17:20.874Z,19.10
2022-10-17T16:19:47.454Z,19.10
2022-10-17T16:22:27.361Z,19.10
2022-10-17T16:24:58.663Z,19.10
2022-10-17T16:27:26.194Z,19.00
2022-10-17T16:29:52.830Z,18.90
2022-10-17T16:32:19.387Z,18.80
2022-10-17T16:34:45.944Z,18.80
2022-10-17T16:37:12.521Z,18.70
2022-10-17T16:39:39.095Z,18.60
2022-10-17T16:42:05.691Z,18.60
2022-10-17T16:44:32.227Z,18.50
2022-10-17T16:46:58.791Z,18.40
2022-10-17T16:49:25.397Z,18.30
2022-10-17T16:51:51.957Z,18.20
2022-10-17T16:54:18.596Z,18.10
2022-10-17T16:56:45.206Z,18.10
2022-10-17T16:59:12.546Z,18.10
2022-10-17T17:01:39.193Z,18.10
2022-10-17T17:04:05.770Z,18.10
2022-10-17T17:06:32.423Z,18.10
2022-10-17T17:08:59.220Z,18.00
2022-10-17T17:11:27.661Z,18.00
2022-10-17T17:13:58.725Z,18.00
2022-10-17T17:16:30.161Z,18.00
2022-10-17T17:18:59.352Z,17.90
2022-10-17T17:21:27.700Z,17.80
2022-10-17T17:23:58.112Z,17.80
2022-10-17T17:26:26.430Z,17.80
2022-10-17T17:28:55.842Z,17.80
2022-10-17T17:31:28.443Z,17.70
2022-10-17T17:36:32.597Z,17.60
2022-10-17T17:39:01.528Z,17.50
2022-10-17T17:41:28.703Z,17.50
2022-10-17T17:43:55.927Z,17.50
2022-10-17T17:46:23.900Z,17.40
2022-10-17T17:48:51.743Z,17.40
2022-10-17T17:51:21.146Z,17.30
2022-10-17T17:53:49.655Z,17.30
2022-10-17T17:56:25.402Z,17.30
2022-10-17T17:59:00.447Z,17.20
2022-10-17T18:01:29.750Z,17.10
2022-10-17T18:03:58.885Z,17.00
2022-10-17T18:06:27.825Z,17.00
2022-10-17T18:08:57.775Z,16.90
2022-10-17T18:11:24.682Z,16.90
2022-10-17T18:13:59.986Z,16.80
2022-10-17T18:16:28.144Z,16.80
2022-10-17T18:18:55.068Z,16.70
2022-10-17T18:21:22.045Z,16.70
2022-10-17T18:23:49.585Z,16.70
2022-10-17T18:26:16.775Z,16.60
2022-10-17T18:28:44.324Z,16.50
2022-10-17T18:31:18.848Z,16.50
2022-10-17T18:33:46.376Z,16.40
2022-10-17T18:36:14.978Z,16.50
2022-10-17T18:38:42.440Z,16.50
2022-10-17T18:41:15.209Z,16.50
2022-10-17T18:43:43.786Z,16.40
2022-10-17T18:46:18.037Z,16.40
2022-10-17T18:48:45.928Z,16.40
2022-10-17T18:51:14.011Z,16.30
2022-10-17T18:53:42.104Z,16.30
2022-10-17T18:56:09.091Z,16.30
2022-10-17T18:58:37.961Z,16.30
2022-10-17T19:01:06.246Z,16.30
2022-10-17T19:03:32.853Z,16.20
2022-10-17T19:06:04.486Z,16.20
2022-10-17T19:08:31.131Z,16.20
2022-10-17T19:10:57.729Z,16.20
2022-10-17T19:13:24.396Z,16.20
2022-10-17T19:15:50.995Z,16.30
2022-10-17T19:18:17.607Z,16.20
2022-10-17T19:20:45.885Z,16.20
2022-10-17T19:23:12.477Z,16.10
2022-10-17T19:25:39.192Z,15.90
2022-10-17T19:28:05.735Z,15.90
2022-10-17T19:30:32.313Z,15.80
2022-10-17T19:32:58.888Z,15.80
2022-10-17T19:35:25.457Z,15.70
2022-10-17T19:37:51.996Z,15.70
2022-10-17T19:40:18.616Z,15.70
2022-10-17T19:42:45.206Z,15.60
2022-10-17T19:45:11.767Z,15.60
2022-10-17T19:47:39.636Z,15.50
2022-10-17T19:50:06.870Z,15.50
2022-10-17T19:52:33.639Z,15.50
2022-10-17T19:55:00.356Z,15.50
2022-10-17T19:57:26.980Z,15.50
2022-10-17T19:59:55.801Z,15.40
2022-10-17T20:02:22.775Z,15.40
2022-10-17T20:04:59.972Z,15.40
2022-10-17T20:07:35.875Z,15.40
2022-10-17T20:10:02.469Z,15.30
2022-10-17T20:12:29.278Z,15.30
2022-10-17T20:14:56.139Z,15.30
2022-10-17T20:17:22.801Z,15.40
2022-10-17T20:19:49.658Z,15.40
2022-10-17T20:22:16.281Z,15.30
2022-10-17T20:24:42.908Z,15.40
2022-10-17T20:27:09.540Z,15.30
2022-10-17T20:29:36.144Z,15.30
2022-10-17T20:32:02.724Z,15.20
2022-10-17T20:34:34.593Z,15.20
2022-10-17T20:37:01.971Z,15.20
2022-10-17T20:39:28.756Z,15.20
2022-10-17T20:41:55.308Z,15.20
2022-10-17T20:44:21.859Z,15.10
2022-10-17T20:47:01.270Z,15.10
2022-10-17T20:49:29.864Z,15.10
2022-10-17T20:51:56.753Z,15.00
2022-10-17T20:54:23.383Z,15.10
2022-10-17T20:56:49.952Z,15.00
2022-10-17T20:59:17.439Z,15.10
2022-10-17T21:01:45.382Z,15.10
2022-10-17T21:04:45.260Z,15.10
2022-10-17T21:06:59.609Z,15.10
2022-10-17T21:09:26.368Z,15.00
2022-10-17T21:11:55.472Z,15.10
2022-10-17T21:14:23.833Z,15.00
2022-10-17T21:16:51.985Z,14.90
2022-10-17T21:19:19.110Z,14.90
2022-10-17T21:21:46.668Z,14.80
2022-10-17T21:24:17.250Z,14.80
2022-10-17T21:26:45.401Z,14.70
2022-10-17T21:29:13.247Z,14.70
2022-10-17T21:31:42.019Z,14.80
2022-10-17T21:34:14.218Z,14.80
2022-10-17T21:36:41.505Z,14.80
2022-10-17T21:39:09.591Z,14.80
2022-10-17T21:41:36.216Z,14.80
2022-10-17T21:44:05.995Z,14.80
2022-10-17T21:46:35.664Z,14.80
2022-10-17T21:49:02.607Z,14.70
2022-10-17T21:51:29.236Z,14.70
2022-10-17T21:53:57.197Z,14.70
2022-10-17T21:56:30.535Z,14.70
2022-10-17T21:58:58.565Z,14.70
2022-10-17T22:01:27.930Z,14.70
2022-10-17T22:03:57.695Z,14.70
2022-10-17T22:06:42.536Z,14.70
2022-10-17T22:09:13.590Z,14.80
2022-10-17T22:11:40.750Z,14.70
2022-10-17T22:14:13.152Z,14.70
2022-10-17T22:16:40.235Z,14.70
2022-10-17T22:19:08.194Z,14.70
2022-10-17T22:21:36.818Z,14.70
2022-10-17T22:24:06.687Z,14.70
2022-10-17T22:26:36.113Z,14.70
2022-10-17T22:29:04.309Z,14.80
2022-10-17T22:31:31.308Z,14.80
2022-10-17T22:33:57.869Z,14.80
2022-10-17T22:36:24.523Z,14.90
2022-10-17T22:38:51.689Z,14.90
2022-10-17T22:41:18.693Z,14.90
2022-10-17T22:43:45.277Z,14.90
2022-10-17T22:46:13.766Z,14.80
2022-10-17T22:48:40.470Z,14.70
2022-10-17T22:51:07.489Z,14.80
2022-10-17T22:53:35.162Z,14.80
2022-10-17T22:56:21.689Z,14.70
2022-10-17T22:58:48.620Z,14.70
2022-10-17T23:01:18.947Z,14.70
2022-10-17T23:03:45.980Z,14.70
2022-10-17T23:06:12.823Z,14.80
2022-10-17T23:08:39.596Z,14.80
2022-10-17T23:11:07.216Z,14.80
2022-10-17T23:13:33.995Z,14.80
2022-10-17T23:16:00.764Z,14.80
2022-10-17T23:18:27.517Z,14.80
2022-10-17T23:20:54.235Z,14.80
2022-10-17T23:23:21.641Z,14.80
2022-10-17T23:25:49.677Z,14.80
2022-10-17T23:28:16.964Z,14.80
2022-10-17T23:30:43.900Z,14.80
2022-10-17T23:33:12.224Z,14.90
2022-10-17T23:35:39.372Z,14.90
2022-10-17T23:38:06.102Z,14.90
2022-10-17T23:40:34.684Z,14.80
2022-10-17T23:43:01.315Z,14.80
2022-10-17T23:45:27.938Z,14.80
2022-10-17T23:47:54.531Z,14.80
2022-10-17T23:50:21.182Z,14.80
2022-10-17T23:52:47.896Z,14.80
2022-10-17T23:55:14.523Z,14.80
2022-10-17T23:57:41.142Z,14.80
